createdAt,value
2022-10-30T00:00:33.193Z,101442.16
2022-10-30T00:03:01.347Z,101440.44
2022-10-30T00:05:29.424Z,101441.31
2022-10-30T00:07:57.352Z,101448.31
2022-10-30T00:10:25.854Z,101430.06
2022-10-30T00:12:53.264Z,101438.66
2022-10-30T00:15:22.091Z,101436.16
2022-10-30T00:17:49.566Z,101434.50
2022-10-30T00:20:17.075Z,101435.47
2022-10-30T00:22:44.455Z,101434.63
2022-10-30T00:25:11.866Z,101433.72
2022-10-30T00:27:39.284Z,101424.09
2022-10-30T00:30:07.856Z,101417.16
2022-10-30T00:32:36.540Z,101423.22
2022-10-30T00:35:04.630Z,101419.06
2022-10-30T00:37:31.999Z,101425.00
2022-10-30T00:39:59.383Z,101419.72
2022-10-30T00:42:30.135Z,101425.84
2022-10-30T00:44:57.682Z,101424.97
2022-10-30T00:47:28.702Z,101425.91
2022-10-30T00:50:01.956Z,101415.41
2022-10-30T00:52:32.639Z,101414.56
2022-10-30T00:55:04.048Z,101419.00
2022-10-30T00:57:31.503Z,101408.63
2022-10-30T00:59:58.880Z,101415.56
2022-10-30T01:02:27.207Z,101405.22
2022-10-30T01:04:55.895Z,101397.38
2022-10-30T01:07:24.899Z,101403.47
2022-10-30T01:09:52.320Z,101401.75
2022-10-30T01:12:19.716Z,101400.91
2022-10-30T01:14:53.516Z,101384.22
2022-10-30T01:17:58.449Z,101376.41
2022-10-30T01:20:51.330Z,101375.66
2022-10-30T01:23:34.985Z,101394.88
2022-10-30T01:26:12.376Z,101393.16
2022-10-30T01:29:04.006Z,101392.41
2022-10-30T01:31:42.053Z,101391.47
2022-10-30T01:34:18.595Z,101388.91
2022-10-30T01:36:50.583Z,101387.91
2022-10-30T01:39:23.481Z,101381.69
2022-10-30T01:41:51.162Z,101377.91
2022-10-30T01:44:21.818Z,101381.31
2022-10-30T01:47:01.823Z,101379.00
2022-10-30T01:49:47.116Z,101376.56
2022-10-30T01:52:19.947Z,101369.75
2022-10-30T01:54:54.739Z,101366.25
2022-10-30T01:57:34.825Z,101355.88
2022-10-30T02:00:05.527Z,101356.78
2022-10-30T02:02:33.777Z,101361.22
2022-10-30T02:05:01.939Z,101360.34
2022-10-30T02:07:29.442Z,101356.94
2022-10-30T02:09:58.243Z,101363.91
2022-10-30T02:12:26.481Z,101360.44
2022-10-30T02:14:57.695Z,101365.66
2022-10-30T02:17:26.445Z,101362.16
2022-10-30T02:19:53.839Z,101357.88
2022-10-30T02:22:22.873Z,101364.03
2022-10-30T02:24:50.301Z,101369.19
2022-10-30T02:27:17.757Z,101366.63
2022-10-30T02:29:45.144Z,101364.06
2022-10-30T02:32:12.559Z,101363.19
2022-10-30T02:34:39.930Z,101352.78
2022-10-30T02:37:07.319Z,101341.44
2022-10-30T02:39:36.027Z,101346.63
2022-10-30T02:42:03.443Z,101348.44
2022-10-30T02:44:30.802Z,101353.69
2022-10-30T02:46:58.223Z,101348.47
2022-10-30T02:49:25.603Z,101340.63
2022-10-30T02:51:53.054Z,101338.84
2022-10-30T02:54:20.454Z,101346.75
2022-10-30T02:56:49.212Z,101341.56
2022-10-30T02:59:16.576Z,101342.41
2022-10-30T03:01:44.160Z,101342.44
2022-10-30T03:04:11.621Z,101342.44
2022-10-30T03:06:39.039Z,101353.78
2022-10-30T03:09:06.551Z,101357.16
2022-10-30T03:11:35.468Z,101371.91
2022-10-30T03:14:04.403Z,101371.09
2022-10-30T03:16:33.503Z,101364.19
2022-10-30T03:19:01.030Z,101366.75
2022-10-30T03:21:28.916Z,101360.66
2022-10-30T03:23:56.952Z,101358.03
2022-10-30T03:26:24.674Z,101352.00
2022-10-30T03:28:52.085Z,101353.81
2022-10-30T03:31:21.033Z,101347.78
2022-10-30T03:33:48.511Z,101348.63
2022-10-30T03:36:16.363Z,101346.00
2022-10-30T03:38:44.115Z,101350.31
2022-10-30T03:41:11.486Z,101331.13
2022-10-30T03:43:38.873Z,101329.34
2022-10-30T03:46:06.617Z,101315.44
2022-10-30T03:48:36.108Z,101322.47
2022-10-30T03:51:03.514Z,101313.81
2022-10-30T03:53:31.163Z,101303.38
2022-10-30T03:56:00.150Z,101320.69
2022-10-30T03:58:27.814Z,101324.13
2022-10-30T04:00:55.288Z,101332.03
2022-10-30T04:03:22.711Z,101319.75
2022-10-30T04:05:53.782Z,101311.84
2022-10-30T04:08:21.178Z,101311.88
2022-10-30T04:10:48.910Z,101327.56
2022-10-30T04:13:18.706Z,101337.06
2022-10-30T04:15:46.084Z,101344.75
2022-10-30T04:18:16.243Z,101334.41
2022-10-30T04:20:44.182Z,101347.38
2022-10-30T04:23:16.826Z,101344.00
2022-10-30T04:25:44.590Z,101339.59
2022-10-30T04:28:12.578Z,101348.19
2022-10-30T04:30:40.556Z,101337.91
2022-10-30T04:33:11.008Z,101357.06
2022-10-30T04:35:38.707Z,101368.25
2022-10-30T04:38:07.542Z,101359.53
2022-10-30T04:40:38.313Z,101349.97
2022-10-30T04:43:06.716Z,101367.38
2022-10-30T04:45:34.546Z,101362.22
2022-10-30T04:48:03.636Z,101343.09
2022-10-30T04:50:31.762Z,101343.06
2022-10-30T04:53:00.397Z,101348.28
2022-10-30T04:55:28.308Z,101357.94
2022-10-30T04:57:58.655Z,101345.78
2022-10-30T05:00:27.767Z,101324.00
2022-10-30T05:02:55.173Z,101336.13
2022-10-30T05:05:22.570Z,101337.94
2022-10-30T05:07:49.952Z,101342.28
2022-10-30T05:10:18.354Z,101326.69
2022-10-30T05:12:46.627Z,101337.94
2022-10-30T05:15:15.741Z,101340.59
2022-10-30T05:17:43.171Z,101331.00
2022-10-30T05:20:14.793Z,101326.59
2022-10-30T05:22:45.266Z,101318.84
2022-10-30T05:25:12.682Z,101313.69
2022-10-30T05:27:40.059Z,101311.16
2022-10-30T05:30:08.662Z,101291.16
2022-10-30T05:32:37.392Z,101286.72
2022-10-30T05:35:05.419Z,101284.88
2022-10-30T05:37:33.031Z,101289.31
2022-10-30T05:40:00.385Z,101284.94
2022-10-30T05:42:27.786Z,101309.00
2022-10-30T05:45:00.791Z,101315.88
2022-10-30T05:47:28.750Z,101326.31
2022-10-30T05:49:57.425Z,101313.88
2022-10-30T05:52:24.811Z,101293.44
2022-10-30T05:54:52.202Z,101282.78
2022-10-30T05:57:19.635Z,101305.09
2022-10-30T05:59:47.019Z,101307.53
2022-10-30T06:02:14.522Z,101280.56
2022-10-30T06:04:41.927Z,101308.31
2022-10-30T06:07:11.253Z,101289.31
2022-10-30T06:09:38.646Z,101303.13
2022-10-30T06:12:06.327Z,101293.47
2022-10-30T06:14:33.714Z,101307.34
2022-10-30T06:17:01.090Z,101297.06
2022-10-30T06:19:28.466Z,101282.28
2022-10-30T06:21:55.887Z,101289.19
2022-10-30T06:24:24.581Z,101275.34
2022-10-30T06:26:51.965Z,101263.16
2022-10-30T06:29:19.387Z,101261.44
2022-10-30T06:31:46.833Z,101270.94
2022-10-30T06:34:14.223Z,101268.38
2022-10-30T06:36:41.683Z,101270.97
2022-10-30T06:39:09.120Z,101276.09
2022-10-30T06:41:37.939Z,101290.69
2022-10-30T06:44:05.558Z,101286.34
2022-10-30T06:46:33.927Z,101287.28
2022-10-30T06:49:01.495Z,101290.31
2022-10-30T06:51:29.182Z,101287.75
2022-10-30T06:53:56.574Z,101289.22
2022-10-30T06:56:23.934Z,101297.72
2022-10-30T06:58:52.838Z,101302.88
2022-10-30T07:01:20.320Z,101311.47
2022-10-30T07:03:47.724Z,101309.03
2022-10-30T07:06:15.177Z,101314.97
2022-10-30T07:08:42.581Z,101317.53
2022-10-30T07:11:10.022Z,101327.03
2022-10-30T07:13:37.414Z,101327.00
2022-10-30T07:16:06.640Z,101325.28
2022-10-30T07:18:34.023Z,101328.75
2022-10-30T07:21:01.393Z,101336.41
2022-10-30T07:23:28.769Z,101330.44
2022-10-30T07:26:00.874Z,101326.94
2022-10-30T07:28:31.538Z,101336.53
2022-10-30T07:30:59.030Z,101342.63
2022-10-30T07:33:27.770Z,101346.97
2022-10-30T07:35:55.172Z,101348.59
2022-10-30T07:38:22.609Z,101345.88
2022-10-30T07:40:53.322Z,101339.69
2022-10-30T07:43:20.788Z,101340.56
2022-10-30T07:45:48.178Z,101351.22
2022-10-30T07:48:15.559Z,101349.38
2022-10-30T07:50:44.228Z,101350.94
2022-10-30T07:53:11.687Z,101339.59
2022-10-30T07:55:39.065Z,101340.63
2022-10-30T07:58:06.437Z,101342.19
2022-10-30T08:00:33.971Z,101352.59
2022-10-30T08:03:01.862Z,101343.88
2022-10-30T08:05:30.406Z,101342.06
2022-10-30T08:07:59.583Z,101339.38
2022-10-30T08:10:27.301Z,101346.25
2022-10-30T08:12:54.795Z,101355.88
2022-10-30T08:15:22.274Z,101344.50
2022-10-30T08:17:51.882Z,101354.81
2022-10-30T08:20:20.866Z,101352.28
2022-10-30T08:22:49.330Z,101344.63
2022-10-30T08:25:19.858Z,101344.38
2022-10-30T08:27:52.320Z,101347.06
2022-10-30T08:30:20.070Z,101348.84
2022-10-30T08:32:47.511Z,101343.50
2022-10-30T08:35:19.818Z,101348.63
2022-10-30T08:37:47.766Z,101342.59
2022-10-30T08:40:15.410Z,101351.19
2022-10-30T08:42:44.180Z,101355.47
2022-10-30T08:45:11.874Z,101353.50
2022-10-30T08:47:39.288Z,101345.44
2022-10-30T08:50:07.003Z,101352.00
2022-10-30T08:52:34.437Z,101343.13
2022-10-30T08:55:01.813Z,101344.50
2022-10-30T08:57:29.573Z,101349.47
2022-10-30T08:59:58.252Z,101339.69
2022-10-30T09:02:25.743Z,101354.22
2022-10-30T09:04:53.194Z,101353.31
2022-10-30T09:07:20.654Z,101351.59
2022-10-30T09:09:48.163Z,101340.16
2022-10-30T09:12:16.207Z,101339.78
2022-10-30T09:14:43.619Z,101352.00
2022-10-30T09:17:12.576Z,101338.94
2022-10-30T09:19:40.302Z,101348.53
2022-10-30T09:22:07.797Z,101340.63
2022-10-30T09:24:35.224Z,101339.06
2022-10-30T09:27:02.652Z,101340.00
2022-10-30T09:29:31.169Z,101326.84
2022-10-30T09:31:58.572Z,101332.66
2022-10-30T09:37:00.196Z,101322.06
2022-10-30T09:39:29.935Z,101325.50
2022-10-30T09:42:16.322Z,101330.47
2022-10-30T09:45:23.222Z,101319.72
2022-10-30T09:48:01.661Z,101315.03
2022-10-30T09:50:35.852Z,101316.16
2022-10-30T09:53:16.374Z,101320.66
2022-10-30T09:55:51.102Z,101322.41
2022-10-30T09:58:28.966Z,101321.22
2022-10-30T10:01:09.763Z,101329.13
2022-10-30T10:03:50.021Z,101338.38
2022-10-30T10:06:21.185Z,101345.28
2022-10-30T10:08:53.086Z,101338.25
2022-10-30T10:11:25.314Z,101343.00
2022-10-30T10:13:58.730Z,101327.66
2022-10-30T10:16:30.089Z,101331.13
2022-10-30T10:19:01.412Z,101342.19
2022-10-30T10:21:33.834Z,101335.28
2022-10-30T10:24:04.171Z,101333.56
2022-10-30T10:26:42.043Z,101325.34
2022-10-30T10:29:34.800Z,101334.81
2022-10-30T10:32:25.290Z,101338.97
2022-10-30T10:35:05.709Z,101335.88
2022-10-30T10:37:41.914Z,101336.47
2022-10-30T10:40:27.733Z,101334.72
2022-10-30T10:43:08.128Z,101337.19
2022-10-30T10:45:47.333Z,101326.69
2022-10-30T10:48:38.070Z,101318.34
2022-10-30T10:51:11.513Z,101310.97
2022-10-30T10:53:45.794Z,101313.63
2022-10-30T10:56:14.713Z,101311.13
2022-10-30T10:58:50.287Z,101317.41
2022-10-30T11:01:23.709Z,101314.09
2022-10-30T11:03:57.490Z,101311.78
2022-10-30T11:06:28.154Z,101309.69
2022-10-30T11:09:12.644Z,101304.25
2022-10-30T11:11:40.088Z,101314.03
2022-10-30T11:14:14.879Z,101300.31
2022-10-30T11:16:55.191Z,101295.03
2022-10-30T11:19:23.325Z,101290.94
2022-10-30T11:21:54.357Z,101302.41
2022-10-30T11:24:31.612Z,101297.75
2022-10-30T11:27:00.650Z,101291.50
2022-10-30T11:29:30.178Z,101298.63
2022-10-30T11:32:03.147Z,101304.81
2022-10-30T11:34:34.221Z,101305.56
2022-10-30T11:37:02.514Z,101302.06
2022-10-30T11:39:33.983Z,101321.19
2022-10-30T11:42:05.324Z,101311.34
2022-10-30T11:44:38.728Z,101310.44
2022-10-30T11:47:07.546Z,101307.88
2022-10-30T11:49:42.026Z,101301.16
2022-10-30T11:52:11.034Z,101306.38
2022-10-30T11:54:44.795Z,101311.34
2022-10-30T11:57:22.121Z,101308.59
2022-10-30T11:59:51.708Z,101298.09
2022-10-30T12:02:30.433Z,101296.13
2022-10-30T12:05:02.931Z,101303.94
2022-10-30T12:07:33.375Z,101294.13
2022-10-30T12:10:04.018Z,101301.19
2022-10-30T12:12:37.256Z,101295.78
2022-10-30T12:15:20.873Z,101301.53
2022-10-30T12:17:52.565Z,101303.59
2022-10-30T12:20:20.783Z,101310.09
2022-10-30T12:22:48.265Z,101308.66
2022-10-30T12:25:25.263Z,101309.72
2022-10-30T12:28:00.264Z,101315.56
2022-10-30T12:30:31.916Z,101306.88
2022-10-30T12:33:03.196Z,101302.63
2022-10-30T12:35:41.687Z,101301.59
2022-10-30T12:38:16.532Z,101296.84
2022-10-30T12:40:51.192Z,101292.94
2022-10-30T12:45:52.182Z,101286.47
2022-10-30T12:48:26.833Z,101289.22
2022-10-30T12:51:10.438Z,101291.91
2022-10-30T12:53:43.659Z,101290.38
2022-10-30T12:56:17.287Z,101303.63
2022-10-30T12:58:51.330Z,101290.38
2022-10-30T13:01:26.939Z,101291.97
2022-10-30T13:03:58.312Z,101290.63
2022-10-30T13:06:31.298Z,101287.34
2022-10-30T13:09:09.244Z,101293.28
2022-10-30T13:11:45.155Z,101289.63
2022-10-30T13:14:17.532Z,101286.19
2022-10-30T13:16:50.027Z,101278.19
2022-10-30T13:19:17.488Z,101271.69
2022-10-30T13:21:52.540Z,101275.59
2022-10-30T13:24:24.725Z,101268.50
2022-10-30T13:26:59.092Z,101272.41
2022-10-30T13:29:30.298Z,101272.16
2022-10-30T13:32:15.578Z,101272.22
2022-10-30T13:34:53.298Z,101271.97
2022-10-30T13:37:28.022Z,101265.75
2022-10-30T13:40:06.883Z,101272.88
2022-10-30T13:42:52.347Z,101273.19
2022-10-30T13:45:36.451Z,101281.69
2022-10-30T13:48:12.427Z,101271.28
2022-10-30T13:50:55.624Z,101270.22
2022-10-30T13:53:27.245Z,101272.56
2022-10-30T13:55:56.765Z,101267.59
2022-10-30T13:58:32.983Z,101275.56
2022-10-30T14:01:06.821Z,101272.81
2022-10-30T14:03:54.149Z,101277.44
2022-10-30T14:06:33.591Z,101276.81
2022-10-30T14:09:13.141Z,101275.16
2022-10-30T14:11:40.575Z,101280.13
2022-10-30T14:14:30.009Z,101276.84
2022-10-30T14:17:13.624Z,101278.34
2022-10-30T14:20:18.508Z,101276.84
2022-10-30T14:23:09.734Z,101289.13
2022-10-30T14:25:37.272Z,101281.47
2022-10-30T14:28:05.618Z,101289.56
2022-10-30T14:30:36.694Z,101281.88
2022-10-30T14:33:04.277Z,101282.28
2022-10-30T14:35:40.077Z,101281.63
2022-10-30T14:38:25.157Z,101279.56
2022-10-30T14:41:23.302Z,101283.38
2022-10-30T14:44:01.842Z,101279.75
2022-10-30T14:46:38.300Z,101285.31
2022-10-30T14:49:27.799Z,101284.13
2022-10-30T14:52:08.930Z,101291.31
2022-10-30T14:54:42.368Z,101288.22
2022-10-30T14:57:21.983Z,101292.28
2022-10-30T14:59:49.405Z,101293.88
2022-10-30T15:02:29.717Z,101288.38
2022-10-30T15:05:15.974Z,101288.69
2022-10-30T15:07:51.303Z,101292.84
2022-10-30T15:10:26.768Z,101283.84
2022-10-30T15:13:06.444Z,101279.16
2022-10-30T15:15:34.843Z,101281.31
2022-10-30T15:18:08.700Z,101282.34
2022-10-30T15:20:38.910Z,101286.09
2022-10-30T15:23:10.844Z,101281.19
2022-10-30T15:25:51.190Z,101281.09
2022-10-30T15:28:35.615Z,101289.75
2022-10-30T15:31:05.612Z,101287.38
2022-10-30T15:33:37.645Z,101292.59
2022-10-30T15:36:05.991Z,101283.34
2022-10-30T15:38:33.489Z,101285.88
2022-10-30T15:41:03.952Z,101290.53
2022-10-30T15:43:34.334Z,101292.59
2022-10-30T15:46:01.852Z,101292.78
2022-10-30T15:48:32.138Z,101297.34
2022-10-30T15:51:04.262Z,101292.25
2022-10-30T15:53:39.235Z,101296.72
2022-10-30T15:56:13.689Z,101293.19
2022-10-30T15:58:50.295Z,101303.72
2022-10-30T16:01:26.539Z,101299.63
2022-10-30T16:03:55.337Z,101306.50
2022-10-30T16:06:27.032Z,101297.03
2022-10-30T16:08:54.579Z,101298.88
2022-10-30T16:11:22.913Z,101298.22
2022-10-30T16:13:50.928Z,101295.84
2022-10-30T16:16:23.145Z,101293.09
2022-10-30T16:18:51.331Z,101282.53
2022-10-30T16:21:22.022Z,101286.13
2022-10-30T16:23:53.044Z,101287.09
2022-10-30T16:26:27.471Z,101280.28
2022-10-30T16:28:54.864Z,101283.88
2022-10-30T16:31:24.312Z,101283.97
2022-10-30T16:33:52.019Z,101277.09
2022-10-30T16:36:20.603Z,101290.38
2022-10-30T16:38:49.617Z,101288.66
2022-10-30T16:41:25.718Z,101287.75
2022-10-30T16:44:17.215Z,101291.34
2022-10-30T16:46:49.311Z,101292.47
2022-10-30T16:49:19.100Z,101297.91
2022-10-30T16:51:47.511Z,101296.16
2022-10-30T16:54:24.503Z,101291.69
2022-10-30T16:56:55.668Z,101295.13
2022-10-30T16:59:31.167Z,101300.50
2022-10-30T17:02:05.718Z,101301.53
2022-10-30T17:04:35.384Z,101301.53
2022-10-30T17:07:08.902Z,101302.38
2022-10-30T17:09:38.786Z,101307.78
2022-10-30T17:12:15.595Z,101308.56
2022-10-30T17:14:49.727Z,101306.63
2022-10-30T17:17:28.967Z,101314.28
2022-10-30T17:19:58.950Z,101302.25
2022-10-30T17:22:27.910Z,101311.91
2022-10-30T17:24:55.713Z,101316.28
2022-10-30T17:27:31.365Z,101319.81
2022-10-30T17:29:59.387Z,101327.66
2022-10-30T17:32:28.601Z,101326.06
2022-10-30T17:35:01.853Z,101327.13
2022-10-30T17:37:29.624Z,101332.41
2022-10-30T17:39:57.029Z,101326.28
2022-10-30T17:42:24.639Z,101329.94
2022-10-30T17:44:53.367Z,101336.09
2022-10-30T17:47:21.760Z,101337.78
2022-10-30T17:49:50.028Z,101334.19
2022-10-30T17:52:20.547Z,101325.56
2022-10-30T17:54:47.962Z,101328.41
2022-10-30T17:57:16.237Z,101322.28
2022-10-30T17:59:44.150Z,101327.38
2022-10-30T18:02:15.715Z,101327.44
2022-10-30T18:04:43.975Z,101324.13
2022-10-30T18:07:11.550Z,101326.78
2022-10-30T18:09:39.419Z,101331.25
2022-10-30T18:12:08.855Z,101334.69
2022-10-30T18:14:36.246Z,101327.69
2022-10-30T18:17:03.773Z,101337.38
2022-10-30T18:19:32.954Z,101332.97
2022-10-30T18:22:00.322Z,101337.19
2022-10-30T18:24:27.694Z,101337.94
2022-10-30T18:26:55.409Z,101334.72
2022-10-30T18:29:22.811Z,101339.84
2022-10-30T18:31:50.220Z,101343.25
2022-10-30T18:34:21.051Z,101338.13
2022-10-30T18:36:50.140Z,101336.47
2022-10-30T18:39:17.770Z,101339.03
2022-10-30T18:41:47.046Z,101339.19
2022-10-30T18:44:16.057Z,101346.22
2022-10-30T18:46:44.010Z,101336.75
2022-10-30T18:49:11.598Z,101335.94
2022-10-30T18:51:39.324Z,101335.09
2022-10-30T18:54:14.602Z,101334.34
2022-10-30T18:56:42.298Z,101335.19
2022-10-30T18:59:09.754Z,101334.16
2022-10-30T19:01:38.364Z,101334.91
2022-10-30T19:04:09.800Z,101336.88
2022-10-30T19:06:38.543Z,101329.13
2022-10-30T19:09:06.066Z,101334.38
2022-10-30T19:11:37.334Z,101329.13
2022-10-30T19:14:10.753Z,101325.78
2022-10-30T19:16:38.140Z,101328.22
2022-10-30T19:19:05.550Z,101324.88
2022-10-30T19:21:34.590Z,101329.31
2022-10-30T19:24:03.877Z,101323.09
2022-10-30T19:26:31.269Z,101328.13
2022-10-30T19:29:00.038Z,101324.88
2022-10-30T19:31:27.471Z,101324.75
2022-10-30T19:33:57.495Z,101330.88
2022-10-30T19:36:30.393Z,101326.50
2022-10-30T19:38:58.633Z,101323.00
2022-10-30T19:41:27.451Z,101324.19
2022-10-30T19:43:55.018Z,101320.09
2022-10-30T19:46:23.744Z,101321.81
2022-10-30T19:48:59.564Z,101327.00
2022-10-30T19:51:27.966Z,101320.72
2022-10-30T19:53:55.500Z,101317.19
2022-10-30T19:56:23.198Z,101320.66
2022-10-30T19:58:51.066Z,101321.63
2022-10-30T20:01:18.723Z,101328.47
2022-10-30T20:03:47.603Z,101332.78
2022-10-30T20:06:16.501Z,101340.63
2022-10-30T20:08:44.565Z,101331.06
2022-10-30T20:11:11.969Z,101333.56
2022-10-30T20:13:39.423Z,101333.59
2022-10-30T20:16:07.515Z,101326.69
2022-10-30T20:18:36.592Z,101329.88
2022-10-30T20:21:08.305Z,101331.56
2022-10-30T20:23:36.191Z,101336.03
2022-10-30T20:26:06.300Z,101328.81
2022-10-30T20:28:36.948Z,101330.34
2022-10-30T20:31:05.301Z,101344.06
2022-10-30T20:33:32.754Z,101346.81
2022-10-30T20:36:00.235Z,101337.97
2022-10-30T20:38:31.449Z,101348.97
2022-10-30T20:41:00.243Z,101340.16
2022-10-30T20:43:30.355Z,101349.94
2022-10-30T20:45:58.191Z,101355.34
2022-10-30T20:48:25.799Z,101360.53
2022-10-30T20:50:53.718Z,101363.03
2022-10-30T20:53:21.204Z,101362.09
2022-10-30T20:55:49.987Z,101362.16
2022-10-30T20:58:17.383Z,101361.31
2022-10-30T21:00:48.463Z,101363.06
2022-10-30T21:03:16.929Z,101357.75
2022-10-30T21:05:46.279Z,101350.06
2022-10-30T21:08:14.768Z,101362.34
2022-10-30T21:10:42.862Z,101356.28
2022-10-30T21:13:11.877Z,101358.97
2022-10-30T21:15:40.005Z,101352.91
2022-10-30T21:18:07.567Z,101346.88
2022-10-30T21:20:35.239Z,101350.41
2022-10-30T21:23:02.660Z,101352.06
2022-10-30T21:25:32.112Z,101355.50
2022-10-30T21:27:59.642Z,101351.97
2022-10-30T21:30:29.037Z,101352.84
2022-10-30T21:32:56.438Z,101357.16
2022-10-30T21:35:23.902Z,101353.69
2022-10-30T21:37:51.355Z,101348.63
2022-10-30T21:40:18.809Z,101349.56
2022-10-30T21:42:48.653Z,101351.25
2022-10-30T21:45:16.155Z,101344.25
2022-10-30T21:47:44.936Z,101345.06
2022-10-30T21:50:13.038Z,101347.69
2022-10-30T21:52:40.836Z,101349.44
2022-10-30T21:55:08.838Z,101352.94
2022-10-30T21:57:36.340Z,101352.94
2022-10-30T22:00:06.144Z,101359.81
2022-10-30T22:02:34.865Z,101359.03
2022-10-30T22:05:03.661Z,101359.91
2022-10-30T22:07:31.282Z,101364.16
2022-10-30T22:09:58.698Z,101368.56
2022-10-30T22:12:26.129Z,101366.03
2022-10-30T22:14:53.533Z,101367.72
2022-10-30T22:17:20.996Z,101372.91
2022-10-30T22:19:48.443Z,101362.50
2022-10-30T22:22:17.135Z,101361.66
2022-10-30T22:24:44.544Z,101370.34
2022-10-30T22:27:11.975Z,101361.66
2022-10-30T22:29:39.387Z,101363.38
2022-10-30T22:32:06.794Z,101362.47
2022-10-30T22:34:34.221Z,101367.72
2022-10-30T22:37:01.593Z,101370.34
2022-10-30T22:39:30.301Z,101362.59
2022-10-30T22:41:57.714Z,101372.19
2022-10-30T22:44:25.097Z,101366.09
2022-10-30T22:46:52.648Z,101363.50
2022-10-30T22:49:20.066Z,101364.38
2022-10-30T22:51:47.479Z,101371.31
2022-10-30T22:54:14.883Z,101360.91
2022-10-30T22:56:43.640Z,101364.34
2022-10-30T22:59:13.641Z,101366.00
2022-10-30T23:01:41.723Z,101368.59
2022-10-30T23:04:11.253Z,101356.50
2022-10-30T23:06:38.753Z,101367.84
2022-10-30T23:09:08.559Z,101360.88
2022-10-30T23:11:35.971Z,101364.25
2022-10-30T23:14:04.767Z,101371.19
2022-10-30T23:16:32.430Z,101366.03
2022-10-30T23:19:02.112Z,101365.06
2022-10-30T23:21:31.356Z,101360.81
2022-10-30T23:23:59.773Z,101360.91
2022-10-30T23:26:30.392Z,101371.34
2022-10-30T23:28:59.461Z,101373.06
2022-10-30T23:31:30.129Z,101367.88
2022-10-30T23:33:59.417Z,101369.56
2022-10-30T23:36:27.830Z,101365.28
2022-10-30T23:38:56.376Z,101371.38
2022-10-30T23:41:25.739Z,101370.50
2022-10-30T23:43:54.412Z,101370.50
2022-10-30T23:46:21.965Z,101373.06
2022-10-30T23:48:51.031Z,101374.84
2022-10-30T23:51:19.181Z,101369.66
2022-10-30T23:53:46.705Z,101367.94
2022-10-30T23:56:14.223Z,101372.25
2022-10-30T23:58:43.762Z,101375.72
